createdAt,value
2022-11-02T00:03:58.684Z,6.99
2022-11-02T00:09:24.655Z,6.97
2022-11-02T00:14:50.211Z,6.92
2022-11-02T00:20:19.441Z,6.80
2022-11-02T00:25:50.976Z,6.80
2022-11-02T00:31:16.122Z,6.67
2022-11-02T00:36:41.172Z,6.60
2022-11-02T00:42:07.490Z,6.55
2022-11-02T00:47:32.024Z,6.44
2022-11-02T00:52:57.541Z,6.41
2022-11-02T00:58:23.544Z,6.57
2022-11-02T01:03:48.770Z,6.47
2022-11-02T01:09:15.365Z,6.45
2022-11-02T01:14:41.117Z,6.41
2022-11-02T01:20:06.505Z,6.45
2022-11-02T01:25:31.375Z,6.59
2022-11-02T01:30:59.012Z,6.58
2022-11-02T01:36:25.224Z,6.48
2022-11-02T01:41:53.723Z,6.32
2022-11-02T01:47:25.486Z,6.31
2022-11-02T01:52:49.528Z,6.31
2022-11-02T01:58:14.327Z,6.27
2022-11-02T02:03:42.419Z,6.15
2022-11-02T02:09:09.461Z,6.23
2022-11-02T02:14:35.494Z,6.23
2022-11-02T02:20:10.801Z,6.31
2022-11-02T02:26:05.169Z,6.31
2022-11-02T02:31:38.456Z,6.30
2022-11-02T02:37:06.944Z,6.14
2022-11-02T02:42:37.808Z,6.16
2022-11-02T02:48:10.576Z,6.08
2022-11-02T02:53:40.220Z,6.15
2022-11-02T02:59:07.549Z,6.25
2022-11-02T03:04:33.567Z,6.29
2022-11-02T03:10:07.644Z,6.33
2022-11-02T03:15:38.696Z,6.33
2022-11-02T03:21:18.506Z,6.27
2022-11-02T03:26:50.540Z,6.31
2022-11-02T03:32:24.670Z,6.25
2022-11-02T03:37:56.813Z,6.26
2022-11-02T03:43:23.007Z,6.26
2022-11-02T03:48:52.278Z,6.20
2022-11-02T03:54:23.222Z,6.14
2022-11-02T03:59:47.534Z,6.13
2022-11-02T04:05:11.597Z,6.15
2022-11-02T04:10:57.001Z,6.19
2022-11-02T04:16:26.624Z,6.19
2022-11-02T04:22:12.578Z,6.02
2022-11-02T04:27:40.183Z,5.81
2022-11-02T04:33:27.307Z,5.73
2022-11-02T04:39:01.145Z,5.93
2022-11-02T04:44:29.085Z,6.00
2022-11-02T04:50:09.798Z,6.10
2022-11-02T04:55:34.686Z,6.16
2022-11-02T05:01:00.018Z,6.16
2022-11-02T05:06:25.312Z,6.14
2022-11-02T05:11:51.119Z,6.14
2022-11-02T05:17:16.505Z,6.02
2022-11-02T05:22:43.516Z,6.11
2022-11-02T05:28:10.762Z,6.27
2022-11-02T05:33:38.136Z,6.38
2022-11-02T05:39:10.518Z,6.59
2022-11-02T05:44:35.595Z,6.70
2022-11-02T05:50:02.780Z,6.88
2022-11-02T05:55:28.934Z,7.06
2022-11-02T06:00:53.594Z,6.62
2022-11-02T06:06:19.933Z,6.61
2022-11-02T06:11:44.618Z,6.68
2022-11-02T06:17:09.524Z,6.86
2022-11-02T06:22:41.458Z,7.02
2022-11-02T06:28:08.953Z,7.48
2022-11-02T06:33:34.130Z,8.49
2022-11-02T06:38:59.936Z,9.54
2022-11-02T06:44:23.771Z,8.99
2022-11-02T06:49:48.003Z,9.30
2022-11-02T06:55:14.867Z,10.80
2022-11-02T07:00:39.002Z,12.23
2022-11-02T07:06:12.789Z,14.41
2022-11-02T07:11:40.150Z,13.93
2022-11-02T07:17:06.079Z,16.03
2022-11-02T07:22:30.267Z,16.57
2022-11-02T07:27:56.197Z,14.52
2022-11-02T07:33:20.519Z,14.48
2022-11-02T07:38:45.169Z,13.02
2022-11-02T07:44:12.683Z,10.89
2022-11-02T07:49:59.168Z,10.49
2022-11-02T07:55:26.351Z,10.06
2022-11-02T08:00:55.926Z,9.49
2022-11-02T08:06:25.080Z,9.59
2022-11-02T08:11:49.996Z,9.65
2022-11-02T08:17:16.921Z,9.81
2022-11-02T08:22:43.875Z,10.26
2022-11-02T08:28:12.191Z,10.26
2022-11-02T08:33:38.531Z,10.26
2022-11-02T08:39:02.331Z,10.62
2022-11-02T08:44:26.412Z,10.87
2022-11-02T08:49:52.953Z,11.15
2022-11-02T08:55:17.293Z,11.35
2022-11-02T09:00:41.359Z,11.09
2022-11-02T09:06:07.135Z,11.12
2022-11-02T09:11:31.655Z,10.87
2022-11-02T09:16:55.649Z,11.21
2022-11-02T09:22:22.634Z,11.22
2022-11-02T09:27:51.530Z,11.38
2022-11-02T09:33:19.310Z,11.70
2022-11-02T09:38:46.256Z,11.75
2022-11-02T09:44:16.121Z,11.75
2022-11-02T09:49:44.199Z,11.69
2022-11-02T09:55:19.703Z,11.31
2022-11-02T10:00:48.980Z,11.39
2022-11-02T10:06:16.576Z,11.48
2022-11-02T10:11:48.737Z,11.51
2022-11-02T10:17:18.690Z,11.39
2022-11-02T10:22:43.996Z,11.74
2022-11-02T10:28:17.100Z,11.95
2022-11-02T10:33:42.072Z,12.14
2022-11-02T10:39:16.233Z,12.08
2022-11-02T10:45:01.542Z,11.97
2022-11-02T10:50:46.645Z,11.63
2022-11-02T10:56:17.597Z,11.47
2022-11-02T11:02:04.442Z,11.56
2022-11-02T11:07:29.639Z,11.65
2022-11-02T11:12:53.558Z,11.74
2022-11-02T11:24:26.220Z,11.61
2022-11-02T11:29:53.641Z,11.53
2022-11-02T11:35:21.479Z,11.40
2022-11-02T11:40:53.845Z,11.34
2022-11-02T11:46:21.570Z,11.41
2022-11-02T11:51:51.608Z,11.48
2022-11-02T11:57:28.430Z,11.40
2022-11-02T12:03:06.203Z,11.28
2022-11-02T12:08:45.314Z,11.31
2022-11-02T12:14:25.551Z,11.32
2022-11-02T12:20:08.859Z,11.19
2022-11-02T12:25:48.409Z,11.13
2022-11-02T12:31:17.749Z,11.10
2022-11-02T12:37:31.671Z,11.10
2022-11-02T12:42:53.829Z,11.13
2022-11-02T12:48:25.881Z,11.27
2022-11-02T12:53:56.738Z,11.32
2022-11-02T12:59:28.292Z,11.38
2022-11-02T13:04:59.396Z,11.38
2022-11-02T13:10:30.523Z,11.41
2022-11-02T13:16:00.946Z,11.48
2022-11-02T13:21:39.821Z,11.48
2022-11-02T13:27:35.910Z,11.55
2022-11-02T13:33:06.519Z,11.52
2022-11-02T13:38:47.194Z,11.45
2022-11-02T13:44:35.128Z,11.41
2022-11-02T13:50:04.284Z,11.43
2022-11-02T13:55:45.716Z,11.51
2022-11-02T14:01:21.798Z,11.52
2022-11-02T14:06:52.784Z,11.52
2022-11-02T14:12:40.507Z,11.52
2022-11-02T14:18:16.805Z,11.57
2022-11-02T14:23:44.878Z,11.60
2022-11-02T14:29:49.181Z,11.57
2022-11-02T14:35:33.895Z,11.55
2022-11-02T14:41:16.355Z,11.39
2022-11-02T14:46:58.123Z,11.14
2022-11-02T14:52:29.124Z,11.03
2022-11-02T14:57:58.504Z,11.10
2022-11-02T15:03:33.950Z,11.10
2022-11-02T15:09:00.890Z,10.93
2022-11-02T15:14:56.582Z,10.94
2022-11-02T15:20:31.715Z,10.93
2022-11-02T15:25:59.905Z,10.90
2022-11-02T15:31:31.578Z,10.95
2022-11-02T15:37:02.320Z,10.92
2022-11-02T15:42:39.313Z,10.96
2022-11-02T15:48:18.772Z,10.96
2022-11-02T15:54:19.869Z,10.88
2022-11-02T16:00:01.418Z,10.93
2022-11-02T16:05:43.791Z,10.98
2022-11-02T16:11:17.288Z,11.04
2022-11-02T16:16:48.713Z,11.10
2022-11-02T16:22:24.140Z,11.12
2022-11-02T16:27:49.723Z,11.13
2022-11-02T16:33:14.127Z,11.17
2022-11-02T16:38:47.792Z,11.16
2022-11-02T16:44:20.979Z,11.16
2022-11-02T16:49:59.728Z,11.15
2022-11-02T16:55:38.432Z,11.14
2022-11-02T17:01:06.827Z,11.12
2022-11-02T17:06:30.393Z,11.04
2022-11-02T17:11:59.104Z,10.99
2022-11-02T17:17:38.895Z,10.84
2022-11-02T17:23:05.536Z,10.73
2022-11-02T17:28:45.166Z,10.64
2022-11-02T17:34:11.492Z,10.55
2022-11-02T17:39:38.044Z,10.47
2022-11-02T17:45:24.390Z,10.43
2022-11-02T17:50:48.636Z,10.37
2022-11-02T17:56:14.655Z,10.36
2022-11-02T18:01:42.476Z,10.35
2022-11-02T18:07:08.219Z,10.37
2022-11-02T18:12:32.916Z,9.95
2022-11-02T18:18:00.205Z,9.90
2022-11-02T18:23:24.452Z,9.87
2022-11-02T18:28:58.345Z,9.84
2022-11-02T18:34:26.086Z,9.85
2022-11-02T18:39:50.295Z,9.91
2022-11-02T18:45:18.880Z,9.95
2022-11-02T18:50:44.662Z,9.99
2022-11-02T18:56:10.522Z,10.03
2022-11-02T19:01:34.568Z,10.09
2022-11-02T19:07:17.695Z,10.11
2022-11-02T19:12:43.760Z,10.00
2022-11-02T19:18:07.807Z,9.98
2022-11-02T19:23:37.099Z,10.00
2022-11-02T19:29:06.581Z,10.01
2022-11-02T19:34:31.843Z,10.03
2022-11-02T19:39:57.837Z,10.01
2022-11-02T19:45:22.553Z,9.94
2022-11-02T19:50:47.313Z,9.87
2022-11-02T19:56:16.134Z,9.85
2022-11-02T20:01:43.750Z,9.79
2022-11-02T20:07:10.148Z,9.74
2022-11-02T20:12:37.153Z,9.71
2022-11-02T20:18:18.397Z,9.67
2022-11-02T20:23:46.003Z,9.61
2022-11-02T20:29:15.349Z,9.51
2022-11-02T20:34:42.815Z,9.47
2022-11-02T20:40:10.144Z,9.43
2022-11-02T20:45:38.537Z,9.39
2022-11-02T20:51:03.400Z,9.32
2022-11-02T20:56:27.894Z,9.24
2022-11-02T21:01:53.962Z,9.18
2022-11-02T21:07:18.310Z,9.04
2022-11-02T21:13:00.220Z,8.91
2022-11-02T21:18:25.832Z,8.87
2022-11-02T21:23:50.126Z,8.76
2022-11-02T21:29:14.772Z,8.73
2022-11-02T21:34:40.047Z,8.61
2022-11-02T21:40:06.472Z,8.50
2022-11-02T21:45:34.966Z,8.41
2022-11-02T21:51:05.728Z,8.32
2022-11-02T21:56:31.797Z,8.04
2022-11-02T22:01:56.018Z,7.94
2022-11-02T22:07:22.273Z,7.90
2022-11-02T22:13:05.027Z,7.82
2022-11-02T22:18:29.416Z,7.68
2022-11-02T22:23:54.939Z,7.52
2022-11-02T22:29:20.134Z,7.38
2022-11-02T22:34:44.705Z,7.31
2022-11-02T22:40:11.301Z,7.27
2022-11-02T22:45:35.400Z,7.20
2022-11-02T22:51:01.283Z,7.02
2022-11-02T22:56:26.663Z,6.96
2022-11-02T23:01:51.787Z,6.83
2022-11-02T23:07:16.102Z,6.74
2022-11-02T23:12:46.692Z,6.68
2022-11-02T23:18:10.464Z,6.64
2022-11-02T23:23:52.822Z,6.47
2022-11-02T23:29:41.864Z,6.38
2022-11-02T23:35:28.720Z,6.38
2022-11-02T23:40:57.407Z,6.37
2022-11-02T23:46:22.512Z,6.34
2022-11-02T23:52:03.455Z,6.24
2022-11-02T23:57:28.273Z,6.18
